sensor_id;sensor_type;location;lat;lon;timestamp;temperature;humidity
25300;DHT22;13241;51.208;4.432;2023-07-29T00:01:36;20.00;99.90
25300;DHT22;13241;51.208;4.432;2023-07-29T00:04:03;20.00;99.90
25300;DHT22;13241;51.208;4.432;2023-07-29T00:06:31;19.90;99.90
25300;DHT22;13241;51.208;4.432;2023-07-29T00:08:58;20.00;99.90
25300;DHT22;13241;51.208;4.432;2023-07-29T00:11:25;20.00;99.90
25300;DHT22;13241;51.208;4.432;2023-07-29T00:13:52;19.80;99.90
25300;DHT22;13241;51.208;4.432;2023-07-29T00:16:20;19.90;99.90
25300;DHT22;13241;51.208;4.432;2023-07-29T00:18:49;19.80;99.90
25300;DHT22;13241;51.208;4.432;2023-07-29T00:21:16;19.90;99.90
25300;DHT22;13241;51.208;4.432;2023-07-29T00:23:43;19.90;99.90
25300;DHT22;13241;51.208;4.432;2023-07-29T00:26:10;20.00;99.90
25300;DHT22;13241;51.208;4.432;2023-07-29T00:28:36;19.80;99.90
25300;DHT22;13241;51.208;4.432;2023-07-29T00:31:04;19.80;99.90
25300;DHT22;13241;51.208;4.432;2023-07-29T00:33:33;19.80;99.90
25300;DHT22;13241;51.208;4.432;2023-07-29T00:36:00;19.80;99.90
25300;DHT22;13241;51.208;4.432;2023-07-29T00:38:29;19.80;99.90
25300;DHT22;13241;51.208;4.432;2023-07-29T00:41:01;19.80;99.90
25300;DHT22;13241;51.208;4.432;2023-07-29T00:43:29;19.70;99.90
25300;DHT22;13241;51.208;4.432;2023-07-29T00:45:56;19.80;99.90
25300;DHT22;13241;51.208;4.432;2023-07-29T00:48:25;19.70;99.90
25300;DHT22;13241;51.208;4.432;2023-07-29T00:50:53;19.70;99.90
25300;DHT22;13241;51.208;4.432;2023-07-29T00:53:20;19.70;99.90
25300;DHT22;13241;51.208;4.432;2023-07-29T00:55:49;19.60;99.90
25300;DHT22;13241;51.208;4.432;2023-07-29T00:58:16;19.50;99.90
25300;DHT22;13241;51.208;4.432;2023-07-29T01:00:43;19.40;99.90
25300;DHT22;13241;51.208;4.432;2023-07-29T01:03:10;19.40;99.90
25300;DHT22;13241;51.208;4.432;2023-07-29T01:05:55;19.40;99.90
25300;DHT22;13241;51.208;4.432;2023-07-29T01:08:34;19.20;99.90
25300;DHT22;13241;51.208;4.432;2023-07-29T01:11:25;19.30;99.90
25300;DHT22;13241;51.208;4.432;2023-07-29T01:14:09;19.20;99.90
25300;DHT22;13241;51.208;4.432;2023-07-29T01:16:48;19.10;99.90
25300;DHT22;13241;51.208;4.432;2023-07-29T01:22:48;19.10;99.90
25300;DHT22;13241;51.208;4.432;2023-07-29T01:25:15;19.10;99.90
25300;DHT22;13241;51.208;4.432;2023-07-29T01:27:45;19.10;99.90
25300;DHT22;13241;51.208;4.432;2023-07-29T01:30:12;19.10;99.90
25300;DHT22;13241;51.208;4.432;2023-07-29T01:32:45;19.00;99.90
25300;DHT22;13241;51.208;4.432;2023-07-29T01:35:32;19.00;99.90
25300;DHT22;13241;51.208;4.432;2023-07-29T01:38:09;19.00;99.90
25300;DHT22;13241;51.208;4.432;2023-07-29T01:40:37;19.00;99.90
25300;DHT22;13241;51.208;4.432;2023-07-29T01:43:04;19.00;99.90
25300;DHT22;13241;51.208;4.432;2023-07-29T01:45:31;19.00;99.90
25300;DHT22;13241;51.208;4.432;2023-07-29T01:48:02;18.90;99.90
25300;DHT22;13241;51.208;4.432;2023-07-29T01:50:29;18.90;99.90
25300;DHT22;13241;51.208;4.432;2023-07-29T01:52:56;18.80;99.90
25300;DHT22;13241;51.208;4.432;2023-07-29T01:55:23;18.90;99.90
25300;DHT22;13241;51.208;4.432;2023-07-29T01:57:50;18.90;99.90
25300;DHT22;13241;51.208;4.432;2023-07-29T02:00:19;18.80;99.90
25300;DHT22;13241;51.208;4.432;2023-07-29T02:02:46;18.80;99.90
25300;DHT22;13241;51.208;4.432;2023-07-29T02:05:13;18.80;99.90
25300;DHT22;13241;51.208;4.432;2023-07-29T02:07:40;18.80;99.90
25300;DHT22;13241;51.208;4.432;2023-07-29T02:10:07;18.80;99.90
25300;DHT22;13241;51.208;4.432;2023-07-29T02:12:34;18.80;99.90
25300;DHT22;13241;51.208;4.432;2023-07-29T02:15:01;18.70;99.90
25300;DHT22;13241;51.208;4.432;2023-07-29T02:17:28;18.80;99.90
25300;DHT22;13241;51.208;4.432;2023-07-29T02:19:55;18.80;99.90
25300;DHT22;13241;51.208;4.432;2023-07-29T02:22:22;18.70;99.90
25300;DHT22;13241;51.208;4.432;2023-07-29T02:24:49;18.70;99.90
25300;DHT22;13241;51.208;4.432;2023-07-29T02:27:16;18.70;99.90
25300;DHT22;13241;51.208;4.432;2023-07-29T02:29:42;18.70;99.90
25300;DHT22;13241;51.208;4.432;2023-07-29T02:32:09;18.70;99.90
25300;DHT22;13241;51.208;4.432;2023-07-29T02:34:36;18.60;99.90
25300;DHT22;13241;51.208;4.432;2023-07-29T02:37:03;18.50;99.90
25300;DHT22;13241;51.208;4.432;2023-07-29T02:39:30;18.60;99.90
25300;DHT22;13241;51.208;4.432;2023-07-29T02:41:57;18.50;99.90
25300;DHT22;13241;51.208;4.432;2023-07-29T02:44:25;18.60;99.90
25300;DHT22;13241;51.208;4.432;2023-07-29T02:46:52;18.50;99.90
25300;DHT22;13241;51.208;4.432;2023-07-29T02:49:24;18.50;99.90
25300;DHT22;13241;51.208;4.432;2023-07-29T02:51:51;18.50;99.90
25300;DHT22;13241;51.208;4.432;2023-07-29T02:54:18;18.40;99.90
25300;DHT22;13241;51.208;4.432;2023-07-29T02:56:45;18.50;99.90
25300;DHT22;13241;51.208;4.432;2023-07-29T02:59:12;18.40;99.90
25300;DHT22;13241;51.208;4.432;2023-07-29T03:01:38;18.40;99.90
25300;DHT22;13241;51.208;4.432;2023-07-29T03:04:05;18.40;99.90
25300;DHT22;13241;51.208;4.432;2023-07-29T03:06:32;18.40;99.90
25300;DHT22;13241;51.208;4.432;2023-07-29T03:09:01;18.30;99.90
25300;DHT22;13241;51.208;4.432;2023-07-29T03:11:28;18.40;99.90
25300;DHT22;13241;51.208;4.432;2023-07-29T03:13:55;18.40;99.90
25300;DHT22;13241;51.208;4.432;2023-07-29T03:16:21;18.50;99.90
25300;DHT22;13241;51.208;4.432;2023-07-29T03:18:53;18.40;99.90
25300;DHT22;13241;51.208;4.432;2023-07-29T03:21:20;18.30;99.90
25300;DHT22;13241;51.208;4.432;2023-07-29T03:23:47;18.40;99.90
25300;DHT22;13241;51.208;4.432;2023-07-29T03:26:13;18.10;99.90
25300;DHT22;13241;51.208;4.432;2023-07-29T03:28:42;18.40;99.90
25300;DHT22;13241;51.208;4.432;2023-07-29T03:31:10;18.30;99.90
25300;DHT22;13241;51.208;4.432;2023-07-29T03:33:37;18.20;99.90
25300;DHT22;13241;51.208;4.432;2023-07-29T03:36:05;18.20;99.90
25300;DHT22;13241;51.208;4.432;2023-07-29T03:38:32;18.20;99.90
25300;DHT22;13241;51.208;4.432;2023-07-29T03:41:01;18.20;99.90
25300;DHT22;13241;51.208;4.432;2023-07-29T03:43:29;18.30;99.90
25300;DHT22;13241;51.208;4.432;2023-07-29T03:46:00;18.20;99.90
25300;DHT22;13241;51.208;4.432;2023-07-29T03:48:27;18.30;99.90
25300;DHT22;13241;51.208;4.432;2023-07-29T03:50:53;18.30;99.90
25300;DHT22;13241;51.208;4.432;2023-07-29T03:53:21;18.20;99.90
25300;DHT22;13241;51.208;4.432;2023-07-29T03:55:48;18.40;99.90
25300;DHT22;13241;51.208;4.432;2023-07-29T03:58:16;18.20;99.90
25300;DHT22;13241;51.208;4.432;2023-07-29T04:00:43;18.20;99.90
25300;DHT22;13241;51.208;4.432;2023-07-29T04:03:10;18.20;99.90
25300;DHT22;13241;51.208;4.432;2023-07-29T04:05:37;18.30;99.90
25300;DHT22;13241;51.208;4.432;2023-07-29T04:08:04;18.30;99.90
25300;DHT22;13241;51.208;4.432;2023-07-29T04:10:31;18.20;99.90
25300;DHT22;13241;51.208;4.432;2023-07-29T04:12:58;18.20;99.90
25300;DHT22;13241;51.208;4.432;2023-07-29T04:15:25;18.20;99.90
25300;DHT22;13241;51.208;4.432;2023-07-29T04:17:52;18.20;99.90
25300;DHT22;13241;51.208;4.432;2023-07-29T04:20:19;18.20;99.90
25300;DHT22;13241;51.208;4.432;2023-07-29T04:22:46;18.20;99.90
25300;DHT22;13241;51.208;4.432;2023-07-29T04:25:13;18.30;99.90
25300;DHT22;13241;51.208;4.432;2023-07-29T04:27:40;18.20;99.90
25300;DHT22;13241;51.208;4.432;2023-07-29T04:30:07;18.20;99.90
25300;DHT22;13241;51.208;4.432;2023-07-29T04:32:34;18.20;99.90
25300;DHT22;13241;51.208;4.432;2023-07-29T04:35:01;18.20;99.90
25300;DHT22;13241;51.208;4.432;2023-07-29T04:37:28;18.20;99.90
25300;DHT22;13241;51.208;4.432;2023-07-29T04:39:55;18.20;99.90
25300;DHT22;13241;51.208;4.432;2023-07-29T04:42:22;18.20;99.90
25300;DHT22;13241;51.208;4.432;2023-07-29T04:44:49;18.20;99.90
25300;DHT22;13241;51.208;4.432;2023-07-29T04:47:16;18.30;99.90
25300;DHT22;13241;51.208;4.432;2023-07-29T04:49:43;18.20;99.90
25300;DHT22;13241;51.208;4.432;2023-07-29T04:52:10;18.30;99.90
25300;DHT22;13241;51.208;4.432;2023-07-29T04:54:37;18.20;99.90
25300;DHT22;13241;51.208;4.432;2023-07-29T04:57:04;18.30;99.90
25300;DHT22;13241;51.208;4.432;2023-07-29T04:59:31;18.40;99.90
25300;DHT22;13241;51.208;4.432;2023-07-29T05:01:57;18.40;99.90
25300;DHT22;13241;51.208;4.432;2023-07-29T05:04:24;18.30;99.90
25300;DHT22;13241;51.208;4.432;2023-07-29T05:06:51;18.20;99.90
25300;DHT22;13241;51.208;4.432;2023-07-29T05:09:19;18.30;99.90
25300;DHT22;13241;51.208;4.432;2023-07-29T05:11:48;18.30;99.90
25300;DHT22;13241;51.208;4.432;2023-07-29T05:14:17;18.40;99.90
25300;DHT22;13241;51.208;4.432;2023-07-29T05:16:44;18.40;99.90
25300;DHT22;13241;51.208;4.432;2023-07-29T05:19:11;18.60;99.90
25300;DHT22;13241;51.208;4.432;2023-07-29T05:21:38;18.70;99.90
25300;DHT22;13241;51.208;4.432;2023-07-29T05:24:05;18.90;99.90
25300;DHT22;13241;51.208;4.432;2023-07-29T05:26:33;19.10;99.90
25300;DHT22;13241;51.208;4.432;2023-07-29T05:29:00;19.10;99.90
25300;DHT22;13241;51.208;4.432;2023-07-29T05:31:27;19.20;99.90
25300;DHT22;13241;51.208;4.432;2023-07-29T05:33:54;19.10;99.90
25300;DHT22;13241;51.208;4.432;2023-07-29T05:36:21;18.90;99.90
25300;DHT22;13241;51.208;4.432;2023-07-29T05:38:49;18.80;99.90
25300;DHT22;13241;51.208;4.432;2023-07-29T05:41:16;18.70;99.90
25300;DHT22;13241;51.208;4.432;2023-07-29T05:43:42;18.70;99.90
25300;DHT22;13241;51.208;4.432;2023-07-29T05:46:10;18.60;99.90
25300;DHT22;13241;51.208;4.432;2023-07-29T05:48:37;18.60;99.90
25300;DHT22;13241;51.208;4.432;2023-07-29T05:51:04;18.70;99.90
25300;DHT22;13241;51.208;4.432;2023-07-29T05:53:32;18.70;99.90
25300;DHT22;13241;51.208;4.432;2023-07-29T05:55:59;18.70;99.90
25300;DHT22;13241;51.208;4.432;2023-07-29T05:58:26;18.80;99.90
25300;DHT22;13241;51.208;4.432;2023-07-29T06:00:53;18.80;99.90
25300;DHT22;13241;51.208;4.432;2023-07-29T06:03:20;18.90;99.90
25300;DHT22;13241;51.208;4.432;2023-07-29T06:05:50;18.90;99.90
25300;DHT22;13241;51.208;4.432;2023-07-29T06:08:20;19.10;99.90
25300;DHT22;13241;51.208;4.432;2023-07-29T06:10:47;19.30;99.90
25300;DHT22;13241;51.208;4.432;2023-07-29T06:13:14;19.50;99.90
25300;DHT22;13241;51.208;4.432;2023-07-29T06:15:41;19.60;99.90
25300;DHT22;13241;51.208;4.432;2023-07-29T06:18:08;19.60;99.90
25300;DHT22;13241;51.208;4.432;2023-07-29T06:20:35;19.80;99.90
25300;DHT22;13241;51.208;4.432;2023-07-29T06:23:03;19.90;99.90
25300;DHT22;13241;51.208;4.432;2023-07-29T06:25:30;20.30;99.90
25300;DHT22;13241;51.208;4.432;2023-07-29T06:27:57;20.60;99.90
25300;DHT22;13241;51.208;4.432;2023-07-29T06:30:25;20.80;99.90
25300;DHT22;13241;51.208;4.432;2023-07-29T06:32:52;21.10;99.90
25300;DHT22;13241;51.208;4.432;2023-07-29T06:35:19;21.20;99.90
25300;DHT22;13241;51.208;4.432;2023-07-29T06:37:46;21.30;99.90
25300;DHT22;13241;51.208;4.432;2023-07-29T06:40:13;21.40;99.90
25300;DHT22;13241;51.208;4.432;2023-07-29T06:42:40;21.30;99.90
25300;DHT22;13241;51.208;4.432;2023-07-29T06:45:07;21.30;99.90
25300;DHT22;13241;51.208;4.432;2023-07-29T06:47:34;21.30;99.90
25300;DHT22;13241;51.208;4.432;2023-07-29T06:50:01;21.30;99.90
25300;DHT22;13241;51.208;4.432;2023-07-29T06:52:28;21.20;99.90
25300;DHT22;13241;51.208;4.432;2023-07-29T06:54:55;21.20;99.90
25300;DHT22;13241;51.208;4.432;2023-07-29T06:57:22;21.30;99.90
25300;DHT22;13241;51.208;4.432;2023-07-29T06:59:48;21.40;99.90
25300;DHT22;13241;51.208;4.432;2023-07-29T07:02:15;21.40;99.90
25300;DHT22;13241;51.208;4.432;2023-07-29T07:04:42;21.50;99.90
25300;DHT22;13241;51.208;4.432;2023-07-29T07:07:09;21.40;99.90
25300;DHT22;13241;51.208;4.432;2023-07-29T07:09:35;21.40;99.90
25300;DHT22;13241;51.208;4.432;2023-07-29T07:12:02;21.30;99.90
25300;DHT22;13241;51.208;4.432;2023-07-29T07:14:29;21.30;99.90
25300;DHT22;13241;51.208;4.432;2023-07-29T07:16:56;21.10;99.90
25300;DHT22;13241;51.208;4.432;2023-07-29T07:19:23;21.20;99.90
25300;DHT22;13241;51.208;4.432;2023-07-29T07:21:50;21.10;99.90
25300;DHT22;13241;51.208;4.432;2023-07-29T07:24:17;21.10;99.90
25300;DHT22;13241;51.208;4.432;2023-07-29T07:26:43;21.10;99.90
25300;DHT22;13241;51.208;4.432;2023-07-29T07:29:10;21.10;99.90
25300;DHT22;13241;51.208;4.432;2023-07-29T07:31:37;21.10;99.90
25300;DHT22;13241;51.208;4.432;2023-07-29T07:34:04;21.10;99.90
25300;DHT22;13241;51.208;4.432;2023-07-29T07:36:31;21.20;99.90
25300;DHT22;13241;51.208;4.432;2023-07-29T07:38:58;21.20;99.90
25300;DHT22;13241;51.208;4.432;2023-07-29T07:41:25;21.20;99.90
25300;DHT22;13241;51.208;4.432;2023-07-29T07:43:52;21.40;99.90
25300;DHT22;13241;51.208;4.432;2023-07-29T07:46:19;21.60;99.90
25300;DHT22;13241;51.208;4.432;2023-07-29T07:48:45;21.70;99.90
25300;DHT22;13241;51.208;4.432;2023-07-29T07:51:13;21.80;99.90
25300;DHT22;13241;51.208;4.432;2023-07-29T07:53:40;21.90;99.90
25300;DHT22;13241;51.208;4.432;2023-07-29T07:56:07;21.90;99.90
25300;DHT22;13241;51.208;4.432;2023-07-29T07:58:34;21.90;99.90
25300;DHT22;13241;51.208;4.432;2023-07-29T08:01:05;22.00;99.90
25300;DHT22;13241;51.208;4.432;2023-07-29T08:03:33;21.90;99.90
25300;DHT22;13241;51.208;4.432;2023-07-29T08:06:01;21.70;99.90
25300;DHT22;13241;51.208;4.432;2023-07-29T08:08:28;21.70;99.90
25300;DHT22;13241;51.208;4.432;2023-07-29T08:10:56;21.70;99.90
25300;DHT22;13241;51.208;4.432;2023-07-29T08:13:24;21.70;99.90
25300;DHT22;13241;51.208;4.432;2023-07-29T08:15:52;21.60;99.90
25300;DHT22;13241;51.208;4.432;2023-07-29T08:18:19;21.70;99.90
25300;DHT22;13241;51.208;4.432;2023-07-29T08:20:54;21.80;99.90
25300;DHT22;13241;51.208;4.432;2023-07-29T08:23:22;22.30;99.90
25300;DHT22;13241;51.208;4.432;2023-07-29T08:25:59;23.00;99.90
25300;DHT22;13241;51.208;4.432;2023-07-29T08:28:37;23.70;99.90
25300;DHT22;13241;51.208;4.432;2023-07-29T08:31:05;23.80;99.90
25300;DHT22;13241;51.208;4.432;2023-07-29T08:33:33;23.80;99.90
25300;DHT22;13241;51.208;4.432;2023-07-29T08:36:00;23.80;99.90
25300;DHT22;13241;51.208;4.432;2023-07-29T08:38:28;23.70;99.90
25300;DHT22;13241;51.208;4.432;2023-07-29T08:41:16;23.70;99.90
25300;DHT22;13241;51.208;4.432;2023-07-29T08:43:52;23.60;99.90
25300;DHT22;13241;51.208;4.432;2023-07-29T08:46:22;23.30;99.90
25300;DHT22;13241;51.208;4.432;2023-07-29T08:48:50;23.10;99.90
25300;DHT22;13241;51.208;4.432;2023-07-29T08:51:17;23.40;99.90
25300;DHT22;13241;51.208;4.432;2023-07-29T08:53:46;23.80;99.90
25300;DHT22;13241;51.208;4.432;2023-07-29T08:56:13;24.00;99.90
25300;DHT22;13241;51.208;4.432;2023-07-29T08:58:41;24.00;99.90
25300;DHT22;13241;51.208;4.432;2023-07-29T09:01:08;24.00;99.90
25300;DHT22;13241;51.208;4.432;2023-07-29T09:03:36;23.90;99.90
25300;DHT22;13241;51.208;4.432;2023-07-29T09:06:04;23.90;99.90
25300;DHT22;13241;51.208;4.432;2023-07-29T09:08:32;23.80;99.90
25300;DHT22;13241;51.208;4.432;2023-07-29T09:11:00;23.80;99.90
25300;DHT22;13241;51.208;4.432;2023-07-29T09:13:27;24.20;99.90
25300;DHT22;13241;51.208;4.432;2023-07-29T09:15:57;24.70;99.90
25300;DHT22;13241;51.208;4.432;2023-07-29T09:18:27;25.00;99.90
25300;DHT22;13241;51.208;4.432;2023-07-29T09:20:58;25.00;99.90
25300;DHT22;13241;51.208;4.432;2023-07-29T09:23:26;24.90;99.90
25300;DHT22;13241;51.208;4.432;2023-07-29T09:26:03;24.80;99.90
25300;DHT22;13241;51.208;4.432;2023-07-29T09:28:34;24.60;99.90
25300;DHT22;13241;51.208;4.432;2023-07-29T09:31:02;24.70;99.90
25300;DHT22;13241;51.208;4.432;2023-07-29T09:33:35;25.00;99.90
25300;DHT22;13241;51.208;4.432;2023-07-29T09:36:09;25.10;99.90
25300;DHT22;13241;51.208;4.432;2023-07-29T09:38:37;25.20;99.90
25300;DHT22;13241;51.208;4.432;2023-07-29T09:41:04;24.90;99.90
25300;DHT22;13241;51.208;4.432;2023-07-29T09:43:32;24.90;99.90
25300;DHT22;13241;51.208;4.432;2023-07-29T09:46:00;24.80;99.90
25300;DHT22;13241;51.208;4.432;2023-07-29T09:48:28;24.60;99.90
25300;DHT22;13241;51.208;4.432;2023-07-29T09:50:58;24.50;99.90
25300;DHT22;13241;51.208;4.432;2023-07-29T09:53:26;24.30;99.90
25300;DHT22;13241;51.208;4.432;2023-07-29T09:55:53;23.90;99.90
25300;DHT22;13241;51.208;4.432;2023-07-29T09:58:26;23.90;99.90
25300;DHT22;13241;51.208;4.432;2023-07-29T10:00:54;23.80;99.90
25300;DHT22;13241;51.208;4.432;2023-07-29T10:03:22;23.70;99.90
25300;DHT22;13241;51.208;4.432;2023-07-29T10:05:49;23.60;99.90
25300;DHT22;13241;51.208;4.432;2023-07-29T10:08:16;23.60;99.90
25300;DHT22;13241;51.208;4.432;2023-07-29T10:10:44;23.80;99.90
25300;DHT22;13241;51.208;4.432;2023-07-29T10:13:12;24.00;99.90
25300;DHT22;13241;51.208;4.432;2023-07-29T10:15:40;24.20;99.90
25300;DHT22;13241;51.208;4.432;2023-07-29T10:18:07;24.60;99.90
25300;DHT22;13241;51.208;4.432;2023-07-29T10:20:35;25.00;99.90
25300;DHT22;13241;51.208;4.432;2023-07-29T10:23:05;25.50;99.90
25300;DHT22;13241;51.208;4.432;2023-07-29T10:25:44;25.90;99.90
25300;DHT22;13241;51.208;4.432;2023-07-29T10:28:15;26.20;99.90
25300;DHT22;13241;51.208;4.432;2023-07-29T10:30:43;26.40;99.90
25300;DHT22;13241;51.208;4.432;2023-07-29T10:33:10;26.50;99.90
25300;DHT22;13241;51.208;4.432;2023-07-29T10:35:38;26.50;99.90
25300;DHT22;13241;51.208;4.432;2023-07-29T10:38:05;26.60;99.90
25300;DHT22;13241;51.208;4.432;2023-07-29T10:41:08;26.50;99.90
25300;DHT22;13241;51.208;4.432;2023-07-29T10:43:37;26.50;99.90
25300;DHT22;13241;51.208;4.432;2023-07-29T10:46:19;26.10;99.90
25300;DHT22;13241;51.208;4.432;2023-07-29T10:48:56;25.70;99.90
25300;DHT22;13241;51.208;4.432;2023-07-29T10:51:34;25.10;99.90
25300;DHT22;13241;51.208;4.432;2023-07-29T10:54:03;24.70;99.90
25300;DHT22;13241;51.208;4.432;2023-07-29T10:56:34;24.30;99.90
25300;DHT22;13241;51.208;4.432;2023-07-29T11:01:40;24.20;99.90
25300;DHT22;13241;51.208;4.432;2023-07-29T11:09:58;24.30;99.90
25300;DHT22;13241;51.208;4.432;2023-07-29T11:17:40;23.50;99.90
25300;DHT22;13241;51.208;4.432;2023-07-29T11:20:08;23.30;99.90
25300;DHT22;13241;51.208;4.432;2023-07-29T11:22:36;23.00;99.90
25300;DHT22;13241;51.208;4.432;2023-07-29T11:25:04;22.70;99.90
25300;DHT22;13241;51.208;4.432;2023-07-29T11:27:32;22.20;99.90
25300;DHT22;13241;51.208;4.432;2023-07-29T11:30:00;21.70;99.90
25300;DHT22;13241;51.208;4.432;2023-07-29T11:32:28;21.40;99.90
25300;DHT22;13241;51.208;4.432;2023-07-29T11:34:55;21.20;99.90
25300;DHT22;13241;51.208;4.432;2023-07-29T11:37:22;20.90;99.90
25300;DHT22;13241;51.208;4.432;2023-07-29T11:39:49;20.60;99.90
25300;DHT22;13241;51.208;4.432;2023-07-29T11:42:15;20.40;99.90
25300;DHT22;13241;51.208;4.432;2023-07-29T11:44:43;20.40;99.90
25300;DHT22;13241;51.208;4.432;2023-07-29T11:47:11;20.40;99.90
25300;DHT22;13241;51.208;4.432;2023-07-29T11:49:39;20.70;99.90
25300;DHT22;13241;51.208;4.432;2023-07-29T11:52:08;21.10;99.90
25300;DHT22;13241;51.208;4.432;2023-07-29T11:54:36;21.30;99.90
25300;DHT22;13241;51.208;4.432;2023-07-29T11:57:07;21.60;99.90
25300;DHT22;13241;51.208;4.432;2023-07-29T11:59:36;21.60;99.90
25300;DHT22;13241;51.208;4.432;2023-07-29T12:02:22;21.80;99.90
25300;DHT22;13241;51.208;4.432;2023-07-29T12:04:50;21.90;99.90
25300;DHT22;13241;51.208;4.432;2023-07-29T12:07:18;22.10;99.90
25300;DHT22;13241;51.208;4.432;2023-07-29T12:09:46;22.60;99.90
25300;DHT22;13241;51.208;4.432;2023-07-29T12:12:13;22.90;99.90
25300;DHT22;13241;51.208;4.432;2023-07-29T12:14:44;23.10;99.90
25300;DHT22;13241;51.208;4.432;2023-07-29T12:17:12;23.20;99.90
25300;DHT22;13241;51.208;4.432;2023-07-29T12:19:40;23.20;99.90
25300;DHT22;13241;51.208;4.432;2023-07-29T12:22:09;23.40;99.90
25300;DHT22;13241;51.208;4.432;2023-07-29T12:24:38;23.30;99.90
25300;DHT22;13241;51.208;4.432;2023-07-29T12:27:10;23.20;99.90
25300;DHT22;13241;51.208;4.432;2023-07-29T12:29:44;23.10;99.90
25300;DHT22;13241;51.208;4.432;2023-07-29T12:32:13;22.90;99.90
25300;DHT22;13241;51.208;4.432;2023-07-29T12:34:41;22.90;99.90
25300;DHT22;13241;51.208;4.432;2023-07-29T12:37:08;22.90;99.90
25300;DHT22;13241;51.208;4.432;2023-07-29T12:39:40;23.00;99.90
25300;DHT22;13241;51.208;4.432;2023-07-29T12:42:10;23.20;99.90
25300;DHT22;13241;51.208;4.432;2023-07-29T12:44:38;23.50;99.90
25300;DHT22;13241;51.208;4.432;2023-07-29T12:47:06;24.00;99.90
25300;DHT22;13241;51.208;4.432;2023-07-29T12:49:35;24.40;99.90
25300;DHT22;13241;51.208;4.432;2023-07-29T12:52:02;24.30;99.90
25300;DHT22;13241;51.208;4.432;2023-07-29T12:54:29;24.20;99.90
25300;DHT22;13241;51.208;4.432;2023-07-29T12:56:56;24.20;99.90
25300;DHT22;13241;51.208;4.432;2023-07-29T12:59:22;24.10;99.90
25300;DHT22;13241;51.208;4.432;2023-07-29T13:01:49;24.10;99.90
25300;DHT22;13241;51.208;4.432;2023-07-29T13:04:16;24.20;99.90
25300;DHT22;13241;51.208;4.432;2023-07-29T13:06:43;24.40;99.90
25300;DHT22;13241;51.208;4.432;2023-07-29T13:09:10;24.50;99.90
25300;DHT22;13241;51.208;4.432;2023-07-29T13:11:36;24.70;99.90
25300;DHT22;13241;51.208;4.432;2023-07-29T13:14:03;24.80;99.90
25300;DHT22;13241;51.208;4.432;2023-07-29T13:16:30;25.00;99.90
25300;DHT22;13241;51.208;4.432;2023-07-29T13:18:57;25.10;99.90
25300;DHT22;13241;51.208;4.432;2023-07-29T13:21:24;25.50;99.90
25300;DHT22;13241;51.208;4.432;2023-07-29T13:23:51;25.70;99.90
25300;DHT22;13241;51.208;4.432;2023-07-29T13:26:18;25.70;99.90
25300;DHT22;13241;51.208;4.432;2023-07-29T13:28:45;25.90;99.90
25300;DHT22;13241;51.208;4.432;2023-07-29T13:31:12;26.10;99.90
25300;DHT22;13241;51.208;4.432;2023-07-29T13:33:40;26.50;99.90
25300;DHT22;13241;51.208;4.432;2023-07-29T13:36:06;27.40;99.90
25300;DHT22;13241;51.208;4.432;2023-07-29T13:38:35;28.30;99.90
25300;DHT22;13241;51.208;4.432;2023-07-29T13:41:02;28.40;99.90
25300;DHT22;13241;51.208;4.432;2023-07-29T13:43:29;28.30;99.90
25300;DHT22;13241;51.208;4.432;2023-07-29T13:45:56;28.00;99.90
25300;DHT22;13241;51.208;4.432;2023-07-29T13:48:23;27.50;99.90
25300;DHT22;13241;51.208;4.432;2023-07-29T13:50:50;27.20;99.90
25300;DHT22;13241;51.208;4.432;2023-07-29T13:53:17;26.90;99.90
25300;DHT22;13241;51.208;4.432;2023-07-29T13:55:45;26.50;99.90
25300;DHT22;13241;51.208;4.432;2023-07-29T13:58:11;26.30;99.90
25300;DHT22;13241;51.208;4.432;2023-07-29T14:00:38;26.80;99.90
25300;DHT22;13241;51.208;4.432;2023-07-29T14:03:05;27.90;99.90
25300;DHT22;13241;51.208;4.432;2023-07-29T14:05:32;28.40;99.90
25300;DHT22;13241;51.208;4.432;2023-07-29T14:07:59;28.10;99.90
25300;DHT22;13241;51.208;4.432;2023-07-29T14:10:26;27.70;99.90
25300;DHT22;13241;51.208;4.432;2023-07-29T14:12:53;27.30;99.90
25300;DHT22;13241;51.208;4.432;2023-07-29T14:15:20;26.90;99.90
25300;DHT22;13241;51.208;4.432;2023-07-29T14:17:47;26.60;99.90
25300;DHT22;13241;51.208;4.432;2023-07-29T14:20:14;26.20;99.90
25300;DHT22;13241;51.208;4.432;2023-07-29T14:22:41;25.90;99.90
25300;DHT22;13241;51.208;4.432;2023-07-29T14:25:08;25.70;99.90
25300;DHT22;13241;51.208;4.432;2023-07-29T14:27:35;25.50;99.90
25300;DHT22;13241;51.208;4.432;2023-07-29T14:30:03;25.40;99.90
25300;DHT22;13241;51.208;4.432;2023-07-29T14:32:30;25.10;99.90
25300;DHT22;13241;51.208;4.432;2023-07-29T14:34:57;24.80;99.90
25300;DHT22;13241;51.208;4.432;2023-07-29T14:37:24;24.80;99.90
25300;DHT22;13241;51.208;4.432;2023-07-29T14:39:51;25.10;99.90
25300;DHT22;13241;51.208;4.432;2023-07-29T14:42:18;25.10;99.90
25300;DHT22;13241;51.208;4.432;2023-07-29T14:44:44;25.20;99.90
25300;DHT22;13241;51.208;4.432;2023-07-29T14:47:11;25.60;99.90
25300;DHT22;13241;51.208;4.432;2023-07-29T14:49:38;27.20;99.90
25300;DHT22;13241;51.208;4.432;2023-07-29T14:52:06;28.80;99.90
25300;DHT22;13241;51.208;4.432;2023-07-29T14:54:33;30.20;99.90
25300;DHT22;13241;51.208;4.432;2023-07-29T14:57:00;31.30;99.90
25300;DHT22;13241;51.208;4.432;2023-07-29T14:59:27;32.00;99.90
25300;DHT22;13241;51.208;4.432;2023-07-29T15:01:53;32.10;99.90
25300;DHT22;13241;51.208;4.432;2023-07-29T15:04:21;31.50;99.90
25300;DHT22;13241;51.208;4.432;2023-07-29T15:06:48;31.50;99.90
25300;DHT22;13241;51.208;4.432;2023-07-29T15:09:14;30.80;99.90
25300;DHT22;13241;51.208;4.432;2023-07-29T15:11:41;29.80;99.90
25300;DHT22;13241;51.208;4.432;2023-07-29T15:14:08;28.80;99.90
25300;DHT22;13241;51.208;4.432;2023-07-29T15:16:35;28.40;99.90
25300;DHT22;13241;51.208;4.432;2023-07-29T15:19:03;29.30;99.90
25300;DHT22;13241;51.208;4.432;2023-07-29T15:21:33;30.00;99.90
25300;DHT22;13241;51.208;4.432;2023-07-29T15:24:00;31.10;99.90
25300;DHT22;13241;51.208;4.432;2023-07-29T15:26:27;32.00;99.90
25300;DHT22;13241;51.208;4.432;2023-07-29T15:28:54;31.90;99.90
25300;DHT22;13241;51.208;4.432;2023-07-29T15:31:21;31.30;99.90
25300;DHT22;13241;51.208;4.432;2023-07-29T15:33:48;30.60;99.90
25300;DHT22;13241;51.208;4.432;2023-07-29T15:36:15;29.50;99.90
25300;DHT22;13241;51.208;4.432;2023-07-29T15:38:42;28.40;99.90
25300;DHT22;13241;51.208;4.432;2023-07-29T15:41:09;27.60;99.90
25300;DHT22;13241;51.208;4.432;2023-07-29T15:43:36;27.10;99.90
25300;DHT22;13241;51.208;4.432;2023-07-29T15:46:03;28.10;99.90
25300;DHT22;13241;51.208;4.432;2023-07-29T15:48:30;29.30;99.90
25300;DHT22;13241;51.208;4.432;2023-07-29T15:50:57;29.50;99.90
25300;DHT22;13241;51.208;4.432;2023-07-29T15:53:24;29.70;99.90